sensor_id;sensor_type;location;lat;lon;timestamp;pressure;altitude;pressure_sealevel;temperature;humidity
11678;BME280;5895;41.950;24.372;2023-02-28T00:00:38;87158.16;;;5.39;87.29
11678;BME280;5895;41.950;24.372;2023-02-28T00:03:06;87162.72;;;5.37;88.01
11678;BME280;5895;41.950;24.372;2023-02-28T00:05:33;87156.81;;;5.43;88.87
11678;BME280;5895;41.950;24.372;2023-02-28T00:08:02;87147.31;;;5.43;88.07
11678;BME280;5895;41.950;24.372;2023-02-28T00:10:31;87147.88;;;5.39;86.34
11678;BME280;5895;41.950;24.372;2023-02-28T00:13:00;87142.72;;;5.39;89.10
11678;BME280;5895;41.950;24.372;2023-02-28T00:15:28;87148.47;;;5.34;87.80
11678;BME280;5895;41.950;24.372;2023-02-28T00:17:56;87148.81;;;5.31;86.94
11678;BME280;5895;41.950;24.372;2023-02-28T00:20:24;87158.69;;;5.27;85.70
11678;BME280;5895;41.950;24.372;2023-02-28T00:22:52;87156.28;;;5.19;85.13
11678;BME280;5895;41.950;24.372;2023-02-28T00:25:23;87157.59;;;5.09;84.72
11678;BME280;5895;41.950;24.372;2023-02-28T00:27:52;87147.84;;;5.04;85.77
11678;BME280;5895;41.950;24.372;2023-02-28T00:30:21;87157.31;;;4.97;85.83
11678;BME280;5895;41.950;24.372;2023-02-28T00:32:49;87161.22;;;4.93;85.76
11678;BME280;5895;41.950;24.372;2023-02-28T00:35:17;87158.41;;;4.88;85.27
11678;BME280;5895;41.950;24.372;2023-02-28T00:37:44;87144.91;;;4.79;84.98
11678;BME280;5895;41.950;24.372;2023-02-28T00:40:12;87144.13;;;4.78;85.22
11678;BME280;5895;41.950;24.372;2023-02-28T00:42:41;87149.63;;;4.75;85.85
11678;BME280;5895;41.950;24.372;2023-02-28T00:45:09;87152.38;;;4.74;86.44
11678;BME280;5895;41.950;24.372;2023-02-28T00:47:37;87140.50;;;4.73;86.76
11678;BME280;5895;41.950;24.372;2023-02-28T00:50:05;87143.63;;;4.68;85.45
11678;BME280;5895;41.950;24.372;2023-02-28T00:52:34;87138.84;;;4.65;85.68
11678;BME280;5895;41.950;24.372;2023-02-28T00:55:01;87148.53;;;4.63;86.46
11678;BME280;5895;41.950;24.372;2023-02-28T00:57:29;87149.50;;;4.62;87.33
11678;BME280;5895;41.950;24.372;2023-02-28T00:59:58;87151.09;;;4.63;87.21
11678;BME280;5895;41.950;24.372;2023-02-28T01:02:25;87147.19;;;4.67;87.93
11678;BME280;5895;41.950;24.372;2023-02-28T01:04:53;87143.44;;;4.70;87.81
11678;BME280;5895;41.950;24.372;2023-02-28T01:07:20;87151.78;;;4.72;87.43
11678;BME280;5895;41.950;24.372;2023-02-28T01:09:48;87146.44;;;4.73;87.66
11678;BME280;5895;41.950;24.372;2023-02-28T01:12:16;87149.63;;;4.75;88.14
11678;BME280;5895;41.950;24.372;2023-02-28T01:14:43;87145.22;;;4.69;87.14
11678;BME280;5895;41.950;24.372;2023-02-28T01:17:12;87143.38;;;4.63;87.13
11678;BME280;5895;41.950;24.372;2023-02-28T01:19:40;87144.13;;;4.57;87.55
11678;BME280;5895;41.950;24.372;2023-02-28T01:22:07;87144.69;;;4.53;87.56
11678;BME280;5895;41.950;24.372;2023-02-28T01:24:35;87141.69;;;4.49;87.33
11678;BME280;5895;41.950;24.372;2023-02-28T01:27:02;87143.81;;;4.45;87.47
11678;BME280;5895;41.950;24.372;2023-02-28T01:29:30;87146.94;;;4.41;86.98
11678;BME280;5895;41.950;24.372;2023-02-28T01:31:57;87142.53;;;4.35;86.73
11678;BME280;5895;41.950;24.372;2023-02-28T01:34:27;87144.06;;;4.29;86.83
11678;BME280;5895;41.950;24.372;2023-02-28T01:36:55;87150.72;;;4.23;86.54
11678;BME280;5895;41.950;24.372;2023-02-28T01:39:24;87145.94;;;4.20;87.55
11678;BME280;5895;41.950;24.372;2023-02-28T01:41:52;87146.56;;;4.22;88.48
11678;BME280;5895;41.950;24.372;2023-02-28T01:44:55;87142.78;;;4.18;87.94
11678;BME280;5895;41.950;24.372;2023-02-28T01:47:26;87153.78;;;4.12;86.79
11678;BME280;5895;41.950;24.372;2023-02-28T01:49:57;87152.28;;;4.03;86.51
11678;BME280;5895;41.950;24.372;2023-02-28T01:52:26;87165.13;;;4.03;88.07
11678;BME280;5895;41.950;24.372;2023-02-28T01:54:55;87165.56;;;4.07;90.03
11678;BME280;5895;41.950;24.372;2023-02-28T01:57:27;87169.19;;;4.12;89.63
11678;BME280;5895;41.950;24.372;2023-02-28T01:59:59;87169.19;;;4.12;90.14
11678;BME280;5895;41.950;24.372;2023-02-28T02:02:29;87172.09;;;4.09;88.38
11678;BME280;5895;41.950;24.372;2023-02-28T02:05:01;87169.72;;;4.08;89.69
11678;BME280;5895;41.950;24.372;2023-02-28T02:07:34;87176.56;;;4.01;88.58
11678;BME280;5895;41.950;24.372;2023-02-28T02:10:04;87174.34;;;3.97;87.65
11678;BME280;5895;41.950;24.372;2023-02-28T02:15:29;87183.56;;;3.92;88.47
11678;BME280;5895;41.950;24.372;2023-02-28T02:18:04;87188.63;;;3.85;88.66
11678;BME280;5895;41.950;24.372;2023-02-28T02:24:18;87190.50;;;3.77;88.75
11678;BME280;5895;41.950;24.372;2023-02-28T02:27:05;87184.31;;;3.71;87.24
11678;BME280;5895;41.950;24.372;2023-02-28T02:32:48;87183.25;;;3.65;87.78
11678;BME280;5895;41.950;24.372;2023-02-28T02:35:24;87189.34;;;3.64;88.42
11678;BME280;5895;41.950;24.372;2023-02-28T02:37:57;87190.31;;;3.63;88.29
11678;BME280;5895;41.950;24.372;2023-02-28T02:40:31;87190.97;;;3.65;88.59
11678;BME280;5895;41.950;24.372;2023-02-28T02:43:06;87195.13;;;3.66;89.11
11678;BME280;5895;41.950;24.372;2023-02-28T02:45:39;87197.94;;;3.71;88.85
11678;BME280;5895;41.950;24.372;2023-02-28T02:48:09;87190.84;;;3.74;88.54
11678;BME280;5895;41.950;24.372;2023-02-28T02:50:43;87190.50;;;3.77;89.50
11678;BME280;5895;41.950;24.372;2023-02-28T02:53:13;87188.53;;;3.79;89.17
11678;BME280;5895;41.950;24.372;2023-02-28T02:55:46;87200.41;;;3.80;89.08
11678;BME280;5895;41.950;24.372;2023-02-28T02:58:23;87198.81;;;3.79;89.52
11678;BME280;5895;41.950;24.372;2023-02-28T03:00:53;87192.50;;;3.81;90.13
11678;BME280;5895;41.950;24.372;2023-02-28T03:03:23;87199.16;;;3.76;88.67
11678;BME280;5895;41.950;24.372;2023-02-28T03:05:57;87201.50;;;3.70;87.80
11678;BME280;5895;41.950;24.372;2023-02-28T03:08:26;87200.59;;;3.63;87.39
11678;BME280;5895;41.950;24.372;2023-02-28T03:10:57;87199.38;;;3.59;87.93
11678;BME280;5895;41.950;24.372;2023-02-28T03:13:52;87214.31;;;3.56;88.50
11678;BME280;5895;41.950;24.372;2023-02-28T03:16:57;87202.63;;;3.53;88.68
11678;BME280;5895;41.950;24.372;2023-02-28T03:19:36;87202.72;;;3.45;87.49
11678;BME280;5895;41.950;24.372;2023-02-28T03:22:34;87204.13;;;3.48;88.84
11678;BME280;5895;41.950;24.372;2023-02-28T03:25:08;87204.69;;;3.43;87.68
11678;BME280;5895;41.950;24.372;2023-02-28T03:27:44;87211.03;;;3.47;87.64
11678;BME280;5895;41.950;24.372;2023-02-28T03:30:23;87208.31;;;3.49;88.94
11678;BME280;5895;41.950;24.372;2023-02-28T03:32:56;87222.25;;;3.46;88.41
11678;BME280;5895;41.950;24.372;2023-02-28T03:35:28;87220.41;;;3.40;87.83
11678;BME280;5895;41.950;24.372;2023-02-28T03:38:03;87225.44;;;3.33;87.65
11678;BME280;5895;41.950;24.372;2023-02-28T03:40:33;87225.63;;;3.32;87.02
11678;BME280;5895;41.950;24.372;2023-02-28T03:43:08;87223.41;;;3.29;87.67
11678;BME280;5895;41.950;24.372;2023-02-28T03:45:38;87232.06;;;3.28;86.80
11678;BME280;5895;41.950;24.372;2023-02-28T03:48:09;87220.22;;;3.27;87.26
11678;BME280;5895;41.950;24.372;2023-02-28T03:50:40;87223.13;;;3.24;87.28
11678;BME280;5895;41.950;24.372;2023-02-28T03:53:12;87225.50;;;3.25;88.48
11678;BME280;5895;41.950;24.372;2023-02-28T03:55:43;87227.47;;;3.23;86.62
11678;BME280;5895;41.950;24.372;2023-02-28T03:58:15;87228.97;;;3.17;86.84
11678;BME280;5895;41.950;24.372;2023-02-28T04:00:49;87231.53;;;3.17;87.67
11678;BME280;5895;41.950;24.372;2023-02-28T04:03:18;87241.78;;;3.17;88.04
11678;BME280;5895;41.950;24.372;2023-02-28T04:05:50;87240.19;;;3.16;87.81
11678;BME280;5895;41.950;24.372;2023-02-28T04:08:20;87244.06;;;3.12;87.71
11678;BME280;5895;41.950;24.372;2023-02-28T04:10:50;87244.06;;;3.12;88.14
11678;BME280;5895;41.950;24.372;2023-02-28T04:13:18;87240.38;;;3.15;88.32
11678;BME280;5895;41.950;24.372;2023-02-28T04:15:45;87245.13;;;3.18;88.95
11678;BME280;5895;41.950;24.372;2023-02-28T04:18:12;87249.13;;;3.21;88.72
11678;BME280;5895;41.950;24.372;2023-02-28T04:20:39;87246.91;;;3.17;88.17
11678;BME280;5895;41.950;24.372;2023-02-28T04:23:06;87247.69;;;3.18;88.79
11678;BME280;5895;41.950;24.372;2023-02-28T04:25:35;87255.22;;;3.19;89.13
11678;BME280;5895;41.950;24.372;2023-02-28T04:28:02;87255.22;;;3.19;89.27
11678;BME280;5895;41.950;24.372;2023-02-28T04:30:29;87251.25;;;3.17;88.81
11678;BME280;5895;41.950;24.372;2023-02-28T04:32:58;87252.22;;;3.16;88.31
11678;BME280;5895;41.950;24.372;2023-02-28T04:35:25;87250.78;;;3.13;88.05
11678;BME280;5895;41.950;24.372;2023-02-28T04:37:52;87257.53;;;3.14;88.65
11678;BME280;5895;41.950;24.372;2023-02-28T04:40:19;87249.19;;;3.12;87.38
11678;BME280;5895;41.950;24.372;2023-02-28T04:42:47;87253.06;;;3.08;87.69
11678;BME280;5895;41.950;24.372;2023-02-28T04:45:15;87249.88;;;3.06;87.52
11678;BME280;5895;41.950;24.372;2023-02-28T04:47:42;87248.91;;;3.07;88.14
11678;BME280;5895;41.950;24.372;2023-02-28T04:50:10;87244.44;;;3.09;88.71
11678;BME280;5895;41.950;24.372;2023-02-28T04:52:37;87249.84;;;3.14;89.54
11678;BME280;5895;41.950;24.372;2023-02-28T04:55:05;87248.84;;;3.15;89.96
11678;BME280;5895;41.950;24.372;2023-02-28T04:57:33;87250.91;;;3.20;91.51
11678;BME280;5895;41.950;24.372;2023-02-28T05:00:01;87247.78;;;3.25;90.64
11678;BME280;5895;41.950;24.372;2023-02-28T05:02:34;87249.03;;;3.29;90.08
11678;BME280;5895;41.950;24.372;2023-02-28T05:05:02;87255.66;;;3.23;89.21
11678;BME280;5895;41.950;24.372;2023-02-28T05:07:29;87258.41;;;3.22;89.55
11678;BME280;5895;41.950;24.372;2023-02-28T05:09:56;87260.34;;;3.19;89.36
11678;BME280;5895;41.950;24.372;2023-02-28T05:12:23;87264.66;;;3.19;89.27
11678;BME280;5895;41.950;24.372;2023-02-28T05:14:50;87263.88;;;3.18;89.48
11678;BME280;5895;41.950;24.372;2023-02-28T05:17:19;87268.03;;;3.19;89.24
11678;BME280;5895;41.950;24.372;2023-02-28T05:19:46;87266.72;;;3.24;89.68
11678;BME280;5895;41.950;24.372;2023-02-28T05:22:14;87266.38;;;3.27;89.99
11678;BME280;5895;41.950;24.372;2023-02-28T05:24:42;87269.91;;;3.26;89.13
11678;BME280;5895;41.950;24.372;2023-02-28T05:27:10;87273.44;;;3.25;89.13
11678;BME280;5895;41.950;24.372;2023-02-28T05:29:37;87273.88;;;3.28;89.52
11678;BME280;5895;41.950;24.372;2023-02-28T05:32:09;87274.34;;;3.32;89.99
11678;BME280;5895;41.950;24.372;2023-02-28T05:34:39;87277.53;;;3.34;89.49
11678;BME280;5895;41.950;24.372;2023-02-28T05:37:07;87279.47;;;3.32;88.43
11678;BME280;5895;41.950;24.372;2023-02-28T05:39:37;87277.53;;;3.34;88.95
11678;BME280;5895;41.950;24.372;2023-02-28T05:42:05;87282.66;;;3.34;88.62
11678;BME280;5895;41.950;24.372;2023-02-28T05:44:33;87284.69;;;3.38;88.69
11678;BME280;5895;41.950;24.372;2023-02-28T05:47:00;87277.28;;;3.43;88.65
11678;BME280;5895;41.950;24.372;2023-02-28T05:49:27;87282.41;;;3.43;88.79
11678;BME280;5895;41.950;24.372;2023-02-28T05:51:56;87287.97;;;3.47;88.80
11678;BME280;5895;41.950;24.372;2023-02-28T05:54:23;87291.50;;;3.46;89.34
11678;BME280;5895;41.950;24.372;2023-02-28T05:56:50;87290.66;;;3.54;88.65
11678;BME280;5895;41.950;24.372;2023-02-28T05:59:17;87285.97;;;3.57;88.89
11678;BME280;5895;41.950;24.372;2023-02-28T06:01:45;87293.66;;;3.57;88.84
11678;BME280;5895;41.950;24.372;2023-02-28T06:04:15;87293.31;;;3.60;88.59
11678;BME280;5895;41.950;24.372;2023-02-28T06:06:44;87298.09;;;3.63;88.61
11678;BME280;5895;41.950;24.372;2023-02-28T06:09:13;87297.75;;;3.66;88.48
11678;BME280;5895;41.950;24.372;2023-02-28T06:11:40;87294.47;;;3.72;88.08
11678;BME280;5895;41.950;24.372;2023-02-28T06:14:14;87289.78;;;3.76;88.87
11678;BME280;5895;41.950;24.372;2023-02-28T06:16:41;87296.00;;;3.82;88.46
11678;BME280;5895;41.950;24.372;2023-02-28T06:19:09;87300.41;;;3.88;88.02
11678;BME280;5895;41.950;24.372;2023-02-28T06:21:36;87303.25;;;3.93;88.03
11678;BME280;5895;41.950;24.372;2023-02-28T06:24:04;87302.09;;;3.95;87.77
11678;BME280;5895;41.950;24.372;2023-02-28T06:26:33;87304.13;;;4.00;88.25
11678;BME280;5895;41.950;24.372;2023-02-28T06:29:00;87312.09;;;4.05;87.92
11678;BME280;5895;41.950;24.372;2023-02-28T06:31:28;87307.13;;;4.18;87.67
11678;BME280;5895;41.950;24.372;2023-02-28T06:33:55;87316.34;;;4.28;87.86
11678;BME280;5895;41.950;24.372;2023-02-28T06:36:22;87308.53;;;4.36;87.52
11678;BME280;5895;41.950;24.372;2023-02-28T06:38:49;87304.25;;;4.43;87.19
11678;BME280;5895;41.950;24.372;2023-02-28T06:41:21;87308.31;;;4.52;87.80
11678;BME280;5895;41.950;24.372;2023-02-28T06:43:50;87310.41;;;4.63;87.82
11678;BME280;5895;41.950;24.372;2023-02-28T06:46:17;87318.66;;;4.73;87.68
11678;BME280;5895;41.950;24.372;2023-02-28T06:48:45;87306.91;;;4.86;87.29
11678;BME280;5895;41.950;24.372;2023-02-28T06:51:14;87316.78;;;5.03;85.89
11678;BME280;5895;41.950;24.372;2023-02-28T06:53:42;87314.75;;;5.20;85.54
11678;BME280;5895;41.950;24.372;2023-02-28T06:56:12;87310.34;;;5.36;85.87
11678;BME280;5895;41.950;24.372;2023-02-28T06:58:39;87304.94;;;5.52;86.43
11678;BME280;5895;41.950;24.372;2023-02-28T07:01:08;87297.50;;;5.64;87.89
11678;BME280;5895;41.950;24.372;2023-02-28T07:03:35;87302.75;;;5.77;86.90
11678;BME280;5895;41.950;24.372;2023-02-28T07:06:04;87307.28;;;5.96;87.56
11678;BME280;5895;41.950;24.372;2023-02-28T07:08:32;87312.91;;;6.06;87.80
11678;BME280;5895;41.950;24.372;2023-02-28T07:10:59;87305.44;;;6.18;85.85
11678;BME280;5895;41.950;24.372;2023-02-28T07:13:26;87318.97;;;6.33;85.66
11678;BME280;5895;41.950;24.372;2023-02-28T07:15:54;87312.72;;;6.49;86.28
11678;BME280;5895;41.950;24.372;2023-02-28T07:18:23;87308.63;;;6.61;84.95
11678;BME280;5895;41.950;24.372;2023-02-28T07:20:50;87313.84;;;6.75;86.11
11678;BME280;5895;41.950;24.372;2023-02-28T07:23:17;87307.72;;;6.82;85.19
11678;BME280;5895;41.950;24.372;2023-02-28T07:25:45;87308.16;;;6.99;84.58
11678;BME280;5895;41.950;24.372;2023-02-28T07:28:12;87306.22;;;7.14;84.20
11678;BME280;5895;41.950;24.372;2023-02-28T07:30:40;87306.03;;;7.16;84.57
11678;BME280;5895;41.950;24.372;2023-02-28T07:33:07;87306.22;;;7.14;83.70
11678;BME280;5895;41.950;24.372;2023-02-28T07:35:36;87300.28;;;7.14;84.68
11678;BME280;5895;41.950;24.372;2023-02-28T07:38:03;87301.84;;;7.15;84.94
11678;BME280;5895;41.950;24.372;2023-02-28T07:40:31;87302.44;;;7.17;85.34
11678;BME280;5895;41.950;24.372;2023-02-28T07:42:59;87293.91;;;7.23;84.31
11678;BME280;5895;41.950;24.372;2023-02-28T07:45:26;87285.03;;;7.46;85.08
11678;BME280;5895;41.950;24.372;2023-02-28T07:47:54;87294.78;;;7.63;83.12
11678;BME280;5895;41.950;24.372;2023-02-28T07:50:22;87291.81;;;7.86;81.57
11678;BME280;5895;41.950;24.372;2023-02-28T07:52:51;87295.56;;;8.04;81.01
11678;BME280;5895;41.950;24.372;2023-02-28T07:55:18;87303.31;;;8.17;81.15
11678;BME280;5895;41.950;24.372;2023-02-28T07:57:45;87302.66;;;8.35;80.51
11678;BME280;5895;41.950;24.372;2023-02-28T08:00:13;87308.63;;;8.55;79.80
11678;BME280;5895;41.950;24.372;2023-02-28T08:02:40;87299.47;;;8.66;79.34
11678;BME280;5895;41.950;24.372;2023-02-28T08:05:08;87310.53;;;8.86;79.12
11678;BME280;5895;41.950;24.372;2023-02-28T08:07:35;87304.88;;;9.02;78.18
11678;BME280;5895;41.950;24.372;2023-02-28T08:10:05;87305.84;;;9.15;78.33
11678;BME280;5895;41.950;24.372;2023-02-28T08:12:32;87302.81;;;9.24;77.12
11678;BME280;5895;41.950;24.372;2023-02-28T08:14:59;87305.78;;;9.28;76.35
11678;BME280;5895;41.950;24.372;2023-02-28T08:17:27;87308.72;;;9.38;76.17
11678;BME280;5895;41.950;24.372;2023-02-28T08:19:54;87303.53;;;9.38;76.89
11678;BME280;5895;41.950;24.372;2023-02-28T08:22:21;87301.13;;;9.43;76.17
11678;BME280;5895;41.950;24.372;2023-02-28T08:24:48;87296.66;;;9.57;76.31
11678;BME280;5895;41.950;24.372;2023-02-28T08:27:17;87303.97;;;9.67;75.17
11678;BME280;5895;41.950;24.372;2023-02-28T08:29:44;87299.38;;;9.69;75.56
11678;BME280;5895;41.950;24.372;2023-02-28T08:32:11;87306.13;;;9.70;75.12
11678;BME280;5895;41.950;24.372;2023-02-28T08:34:39;87304.41;;;9.57;76.53
11678;BME280;5895;41.950;24.372;2023-02-28T08:37:06;87304.47;;;9.50;75.62
11678;BME280;5895;41.950;24.372;2023-02-28T08:39:34;87305.16;;;9.33;75.96
11678;BME280;5895;41.950;24.372;2023-02-28T08:42:02;87299.84;;;9.21;77.15
11678;BME280;5895;41.950;24.372;2023-02-28T08:44:30;87302.47;;;9.08;78.05
11678;BME280;5895;41.950;24.372;2023-02-28T08:46:57;87297.13;;;9.02;77.77
11678;BME280;5895;41.950;24.372;2023-02-28T08:49:24;87295.66;;;9.20;77.14
11678;BME280;5895;41.950;24.372;2023-02-28T08:51:52;87303.94;;;9.35;76.60
11678;BME280;5895;41.950;24.372;2023-02-28T08:54:21;87309.91;;;9.36;76.80
11678;BME280;5895;41.950;24.372;2023-02-28T08:56:48;87301.13;;;9.37;76.11
11678;BME280;5895;41.950;24.372;2023-02-28T08:59:15;87296.25;;;9.53;76.35
11678;BME280;5895;41.950;24.372;2023-02-28T09:01:44;87295.06;;;9.88;74.93
11678;BME280;5895;41.950;24.372;2023-02-28T09:04:11;87299.13;;;10.02;73.91
11678;BME280;5895;41.950;24.372;2023-02-28T09:06:38;87299.28;;;9.82;73.88
11678;BME280;5895;41.950;24.372;2023-02-28T09:09:06;87300.16;;;9.69;74.88
11678;BME280;5895;41.950;24.372;2023-02-28T09:11:33;87293.00;;;9.65;75.15
11678;BME280;5895;41.950;24.372;2023-02-28T09:14:02;87297.50;;;10.07;74.44
11678;BME280;5895;41.950;24.372;2023-02-28T09:16:30;87286.78;;;10.47;73.50
11678;BME280;5895;41.950;24.372;2023-02-28T09:18:59;87286.69;;;10.97;71.69
11678;BME280;5895;41.950;24.372;2023-02-28T09:21:27;87280.25;;;11.18;70.37
11678;BME280;5895;41.950;24.372;2023-02-28T09:23:54;87276.81;;;11.36;70.10
11678;BME280;5895;41.950;24.372;2023-02-28T09:26:23;87281.38;;;11.41;70.25
11678;BME280;5895;41.950;24.372;2023-02-28T09:28:54;87269.13;;;11.59;69.33
11678;BME280;5895;41.950;24.372;2023-02-28T09:31:25;87272.53;;;11.72;68.75
11678;BME280;5895;41.950;24.372;2023-02-28T09:33:54;87271.31;;;11.74;68.29
11678;BME280;5895;41.950;24.372;2023-02-28T09:36:26;87275.91;;;11.90;67.44
11678;BME280;5895;41.950;24.372;2023-02-28T09:38:55;87259.88;;;12.05;68.06
11678;BME280;5895;41.950;24.372;2023-02-28T09:41:25;87268.03;;;12.09;67.66
11678;BME280;5895;41.950;24.372;2023-02-28T09:43:55;87260.13;;;11.74;69.05
11678;BME280;5895;41.950;24.372;2023-02-28T09:46:31;87264.59;;;11.66;70.11
11678;BME280;5895;41.950;24.372;2023-02-28T09:49:02;87261.66;;;11.51;71.76
11678;BME280;5895;41.950;24.372;2023-02-28T09:51:43;87270.19;;;11.40;71.96
11678;BME280;5895;41.950;24.372;2023-02-28T09:54:14;87264.88;;;11.17;73.23
11678;BME280;5895;41.950;24.372;2023-02-28T09:56:45;87264.19;;;10.91;74.77
11678;BME280;5895;41.950;24.372;2023-02-28T09:59:25;87265.25;;;10.65;75.08
11678;BME280;5895;41.950;24.372;2023-02-28T10:02:01;87260.28;;;10.45;76.40
11678;BME280;5895;41.950;24.372;2023-02-28T10:04:41;87255.88;;;10.27;77.36
11678;BME280;5895;41.950;24.372;2023-02-28T10:07:19;87261.97;;;10.08;78.86
11678;BME280;5895;41.950;24.372;2023-02-28T10:09:52;87267.91;;;9.90;79.02
11678;BME280;5895;41.950;24.372;2023-02-28T10:12:20;87268.59;;;9.79;79.89
11678;BME280;5895;41.950;24.372;2023-02-28T10:14:51;87264.47;;;9.71;81.02
11678;BME280;5895;41.950;24.372;2023-02-28T10:17:22;87264.72;;;9.63;81.79
11678;BME280;5895;41.950;24.372;2023-02-28T10:19:58;87261.97;;;9.58;82.00
11678;BME280;5895;41.950;24.372;2023-02-28T10:22:32;87254.81;;;9.53;82.47
11678;BME280;5895;41.950;24.372;2023-02-28T10:25:05;87255.19;;;9.57;82.35
11678;BME280;5895;41.950;24.372;2023-02-28T10:27:38;87256.59;;;9.60;82.31
11678;BME280;5895;41.950;24.372;2023-02-28T10:30:08;87247.44;;;9.57;82.07
11678;BME280;5895;41.950;24.372;2023-02-28T10:32:38;87259.22;;;9.53;83.24
11678;BME280;5895;41.950;24.372;2023-02-28T10:35:14;87251.91;;;9.43;83.63
11678;BME280;5895;41.950;24.372;2023-02-28T10:37:45;87251.81;;;9.25;85.05
11678;BME280;5895;41.950;24.372;2023-02-28T10:40:27;87243.56;;;9.10;88.72
11678;BME280;5895;41.950;24.372;2023-02-28T10:42:59;87237.41;;;9.04;87.36
11678;BME280;5895;41.950;24.372;2023-02-28T10:45:27;87237.28;;;8.92;87.38
11678;BME280;5895;41.950;24.372;2023-02-28T10:47:57;87241.69;;;8.79;87.46
11678;BME280;5895;41.950;24.372;2023-02-28T10:50:34;87237.97;;;8.68;88.13
11678;BME280;5895;41.950;24.372;2023-02-28T10:53:28;87236.38;;;8.67;88.08
11678;BME280;5895;41.950;24.372;2023-02-28T10:55:59;87242.38;;;8.61;86.52
11678;BME280;5895;41.950;24.372;2023-02-28T10:58:30;87239.03;;;8.54;86.02
11678;BME280;5895;41.950;24.372;2023-02-28T11:00:58;87242.25;;;8.42;87.16
11678;BME280;5895;41.950;24.372;2023-02-28T11:03:30;87246.25;;;8.25;87.30
11678;BME280;5895;41.950;24.372;2023-02-28T11:05:59;87241.88;;;8.12;86.22
11678;BME280;5895;41.950;24.372;2023-02-28T11:08:33;87234.34;;;8.11;87.03
11678;BME280;5895;41.950;24.372;2023-02-28T11:11:04;87228.59;;;8.09;87.79
11678;BME280;5895;41.950;24.372;2023-02-28T11:13:34;87226.38;;;8.06;87.83
11678;BME280;5895;41.950;24.372;2023-02-28T11:16:04;87228.59;;;8.09;87.60
11678;BME280;5895;41.950;24.372;2023-02-28T11:18:37;87222.38;;;8.23;86.91
11678;BME280;5895;41.950;24.372;2023-02-28T11:21:06;87209.25;;;8.31;88.46
11678;BME280;5895;41.950;24.372;2023-02-28T11:23:40;87220.41;;;8.25;90.00
11678;BME280;5895;41.950;24.372;2023-02-28T11:26:08;87221.19;;;8.12;88.73
11678;BME280;5895;41.950;24.372;2023-02-28T11:28:39;87215.09;;;7.93;91.09
11678;BME280;5895;41.950;24.372;2023-02-28T11:31:18;87213.69;;;7.84;96.36
11678;BME280;5895;41.950;24.372;2023-02-28T11:33:49;87217.28;;;7.83;92.82
11678;BME280;5895;41.950;24.372;2023-02-28T11:36:19;87211.31;;;7.89;90.40
11678;BME280;5895;41.950;24.372;2023-02-28T11:38:52;87209.31;;;7.98;90.22
11678;BME280;5895;41.950;24.372;2023-02-28T11:41:42;87211.66;;;8.13;93.58
11678;BME280;5895;41.950;24.372;2023-02-28T11:44:24;87203.69;;;8.21;91.67
11678;BME280;5895;41.950;24.372;2023-02-28T11:46:58;87204.06;;;8.31;88.93
11678;BME280;5895;41.950;24.372;2023-02-28T11:49:34;87193.69;;;8.44;89.07
11678;BME280;5895;41.950;24.372;2023-02-28T11:52:10;87188.88;;;8.55;89.07
11678;BME280;5895;41.950;24.372;2023-02-28T11:54:59;87194.44;;;8.52;91.41
11678;BME280;5895;41.950;24.372;2023-02-28T11:57:35;87192.50;;;8.40;89.32
11678;BME280;5895;41.950;24.372;2023-02-28T12:00:14;87185.78;;;8.26;90.18
11678;BME280;5895;41.950;24.372;2023-02-28T12:02:59;87202.50;;;8.17;90.75
11678;BME280;5895;41.950;24.372;2023-02-28T12:05:38;87193.19;;;8.09;90.25
11678;BME280;5895;41.950;24.372;2023-02-28T12:08:21;87190.81;;;8.01;89.65
11678;BME280;5895;41.950;24.372;2023-02-28T12:11:00;87194.19;;;8.02;89.76
11678;BME280;5895;41.950;24.372;2023-02-28T12:13:40;87192.41;;;7.95;89.82
11678;BME280;5895;41.950;24.372;2023-02-28T12:16:34;87189.66;;;7.90;90.28
11678;BME280;5895;41.950;24.372;2023-02-28T12:19:16;87183.31;;;7.86;90.73
11678;BME280;5895;41.950;24.372;2023-02-28T12:21:58;87190.66;;;7.89;89.95
11678;BME280;5895;41.950;24.372;2023-02-28T12:24:44;87192.47;;;7.76;90.96
11678;BME280;5895;41.950;24.372;2023-02-28T12:27:19;87193.06;;;7.71;90.04
11678;BME280;5895;41.950;24.372;2023-02-28T12:29:51;87195.66;;;7.71;90.56
11678;BME280;5895;41.950;24.372;2023-02-28T12:32:25;87197.44;;;7.57;89.68
11678;BME280;5895;41.950;24.372;2023-02-28T12:34:57;87193.69;;;7.53;90.94
11678;BME280;5895;41.950;24.372;2023-02-28T12:37:31;87196.66;;;7.43;92.42
11678;BME280;5895;41.950;24.372;2023-02-28T12:40:01;87192.69;;;7.34;90.45
11678;BME280;5895;41.950;24.372;2023-02-28T12:42:36;87197.06;;;7.27;91.49
11678;BME280;5895;41.950;24.372;2023-02-28T12:45:10;87194.69;;;7.19;93.51
11678;BME280;5895;41.950;24.372;2023-02-28T12:47:44;87193.88;;;7.05;93.96
11678;BME280;5895;41.950;24.372;2023-02-28T12:50:15;87191.28;;;6.99;93.79
11678;BME280;5895;41.950;24.372;2023-02-28T12:52:50;87197.44;;;6.98;93.31
11678;BME280;5895;41.950;24.372;2023-02-28T12:55:25;87193.06;;;6.92;92.83
11678;BME280;5895;41.950;24.372;2023-02-28T12:58:03;87189.09;;;6.96;93.23
11678;BME280;5895;41.950;24.372;2023-02-28T13:00:36;87195.44;;;7.00;92.45
11678;BME280;5895;41.950;24.372;2023-02-28T13:03:21;87197.03;;;6.87;97.11
11678;BME280;5895;41.950;24.372;2023-02-28T13:09:11;87195.00;;;6.63;94.19
11678;BME280;5895;41.950;24.372;2023-02-28T13:11:43;87193.78;;;6.59;93.51
11678;BME280;5895;41.950;24.372;2023-02-28T13:14:23;87196.97;;;6.61;94.32
11678;BME280;5895;41.950;24.372;2023-02-28T13:16:57;87188.22;;;6.62;93.14
11678;BME280;5895;41.950;24.372;2023-02-28T13:19:26;87180.72;;;6.67;92.78
11678;BME280;5895;41.950;24.372;2023-02-28T13:21:56;87182.91;;;6.70;92.38
11678;BME280;5895;41.950;24.372;2023-02-28T13:24:43;87177.75;;;6.77;94.72
11678;BME280;5895;41.950;24.372;2023-02-28T13:27:32;87184.34;;;6.79;94.67
11678;BME280;5895;41.950;24.372;2023-02-28T13:32:44;87176.78;;;6.84;93.40
11678;BME280;5895;41.950;24.372;2023-02-28T13:35:42;87177.97;;;6.88;96.23
11678;BME280;5895;41.950;24.372;2023-02-28T13:38:32;87179.19;;;6.86;94.69
11678;BME280;5895;41.950;24.372;2023-02-28T13:44:02;87180.19;;;6.92;93.96
11678;BME280;5895;41.950;24.372;2023-02-28T13:46:32;87182.34;;;6.95;93.87
11678;BME280;5895;41.950;24.372;2023-02-28T13:49:19;87182.75;;;6.98;95.56